< < Back
Terminal Aerodrome Forecast


Current Version              Previous Versions:   1  2  3  4  5  6  7  8  9  

Terminal Aerodrome Forecast

829
FTUS44 KOHX 311120
TAFCSV
TAF
KCSV 311120Z 3112/0112 VRB02KT P6SM BKN250=

Latest METAR

935
SAUS70 KWBC 311200 RRN
MTRCSV
METAR KCSV 311153Z AUTO 00000KT 10SM CLR 18/16 A3004 RMK AO2 SLP154
T01780156 10178 20150 53010


USA.gov is the U.S. government's official web portal to all federal, state and local government web resources and services.